Time;durP1;ratioP1;P1;durP2;ratioP2;P2;SDS_P1;SDS_P2;PMS_P1;PMS_P2;Temp;Humidity;BMP_temperature;BMP_pressure;BME280_temperature;BME280_humidity;BME280_pressure;Samples;Min_cycle;Max_cycle;Signal;HPM_P1;HPM_P2
2021/12/10 00:00:53;;;;;;;1.25;0.95;;;;;;;-145.06;0.00;60892.56;4717445;29;20036;-88
2021/12/10 00:03:40;;;;;;;1.75;1.20;;;;;;;-145.06;0.00;60892.56;4726561;29;20072;-89
2021/12/10 00:06:27;;;;;;;1.38;1.10;;;;;;;-145.06;0.00;60892.56;4719451;29;20029;-88
2021/12/10 00:09:13;;;;;;;1.52;1.00;;;;;;;-145.06;0.00;60892.56;4721932;29;20036;-88
2021/12/10 00:12:08;;;;;;;1.45;1.13;;;;;;;-145.06;0.00;60892.56;4709898;29;20037;-88
2021/12/10 00:14:48;;;;;;;2.15;1.10;;;;;;;-145.06;0.00;60892.56;4708337;29;20107;-88
2021/12/10 00:17:33;;;;;;;2.20;1.13;;;;;;;-145.06;0.00;60892.56;4733448;29;20187;-88
2021/12/10 00:20:15;;;;;;;1.67;1.00;;;;;;;-145.06;0.00;60892.56;4726047;29;20024;-88
2021/12/10 00:22:59;;;;;;;1.70;0.80;;;;;;;-145.06;0.00;60892.56;4745365;29;20028;-88
2021/12/10 00:25:44;;;;;;;1.77;0.95;;;;;;;-145.06;0.00;60892.56;4729129;29;20032;-87
2021/12/10 00:28:39;;;;;;;1.15;0.93;;;;;;;-145.06;0.00;60892.56;4699318;29;20032;-88
2021/12/10 00:34:23;;;;;;;1.08;0.80;;;;;;;-145.06;0.00;60892.56;4733296;29;20482;-88
2021/12/10 00:37:06;;;;;;;2.70;0.88;;;;;;;-145.06;0.00;60892.56;4733046;29;20045;-88
2021/12/10 00:39:52;;;;;;;1.08;0.82;;;;;;;-145.06;0.00;60892.56;4743737;29;20016;-88
2021/12/10 00:42:33;;;;;;;0.80;0.70;;;;;;;-145.06;0.00;60892.56;4761546;29;20123;-88
2021/12/10 00:45:15;;;;;;;2.13;1.00;;;;;;;-145.06;0.00;60892.56;4733971;29;20657;-89
2021/12/10 00:47:55;;;;;;;1.27;0.77;;;;;;;-145.06;0.00;60892.56;4713520;29;20072;-89
2021/12/10 00:50:39;;;;;;;;;;;;;;;-145.06;0.00;60892.56;4739811;29;20376;-88
2021/12/10 00:53:19;;;;;;;1.33;0.80;;;;;;;-145.06;0.00;60892.56;4749424;29;19919;-88
2021/12/10 00:55:58;;;;;;;1.33;0.80;;;;;;;-145.06;0.00;60892.56;4728363;29;20029;-89
2021/12/10 00:58:40;;;;;;;0.73;0.73;;;;;;;-145.06;0.00;60892.56;4723458;29;20388;-88
2021/12/10 01:01:25;;;;;;;1.58;0.93;;;;;;;-145.06;0.00;60892.56;4737341;29;20032;-86
2021/12/10 01:04:13;;;;;;;1.50;0.95;;;;;;;-145.06;0.00;60892.56;4724540;29;20032;-88
2021/12/10 01:06:56;;;;;;;0.95;0.80;;;;;;;-145.06;0.00;60892.56;4723496;29;20041;-88
2021/12/10 01:09:39;;;;;;;1.63;0.98;;;;;;;-145.06;0.00;60892.56;4725709;29;20036;-89
2021/12/10 01:12:26;;;;;;;1.15;0.70;;;;;;;-145.06;0.00;60892.56;4727934;29;20033;-88
2021/12/10 01:27:27;;;;;;;1.15;0.73;;;;;;;-145.06;0.00;60892.56;4731208;29;20032;-87
2021/12/10 01:30:15;;;;;;;1.55;0.75;;;;;;;-145.06;0.00;60892.56;4725434;29;20028;-88
2021/12/10 01:33:10;;;;;;;0.90;0.70;;;;;;;-145.06;0.00;60892.56;4741207;29;20029;-88
2021/12/10 01:35:54;;;;;;;1.10;0.60;;;;;;;-145.06;0.00;60892.56;4718086;29;20604;-88
2021/12/10 01:38:35;;;;;;;1.02;0.63;;;;;;;-145.06;0.00;60892.56;4729233;29;20033;-88
2021/12/10 01:41:17;;;;;;;2.55;0.80;;;;;;;-145.06;0.00;60892.56;4743173;29;20104;-88
2021/12/10 01:44:02;;;;;;;0.93;0.60;;;;;;;5.16;0.00;60892.56;4712509;29;20040;-88
2021/12/10 01:46:42;;;;;;;0.75;0.57;;;;;;;10.68;0.00;60892.56;4729998;29;20041;-88
2021/12/10 01:49:21;;;;;;;1.35;0.70;;;;;;;-145.06;0.00;60892.56;4724397;29;20036;-87
2021/12/10 01:52:01;;;;;;;1.77;0.80;;;;;;;-145.06;0.00;60892.56;4738009;29;20490;-88
2021/12/10 01:54:44;;;;;;;1.47;0.87;;;;;;;-145.06;0.00;60892.56;4719976;29;20044;-88
2021/12/10 01:57:28;;;;;;;4.22;0.88;;;;;;;-145.06;0.00;60892.56;4713655;29;20646;-89
2021/12/10 02:00:10;;;;;;;1.83;0.90;;;;;;;-145.06;0.00;60892.56;4716078;29;20028;-88
2021/12/10 02:02:50;;;;;;;1.05;0.70;;;;;;;-145.06;0.00;60892.56;4719392;29;20028;-88
2021/12/10 02:05:32;;;;;;;2.38;0.75;;;;;;;-145.06;0.00;60892.56;4715685;29;20036;-88
2021/12/10 02:08:12;;;;;;;1.63;0.80;;;;;;;-145.06;0.00;60892.56;4731593;29;20491;-89
2021/12/10 02:10:51;;;;;;;;;;;;;;;-145.06;0.00;60892.56;4741008;29;20032;-89
2021/12/10 02:13:30;;;;;;;1.63;1.00;;;;;;;-145.06;0.00;60892.56;4737764;29;20010;-89
2021/12/10 02:16:12;;;;;;;1.63;0.60;;;;;;;-145.06;0.00;60892.56;4733226;29;20280;-88
2021/12/10 02:18:52;;;;;;;1.33;0.68;;;;;;;-145.06;0.00;60892.56;4707040;29;20036;-89
2021/12/10 02:21:34;;;;;;;1.15;0.45;;;;;;;-145.06;0.00;60892.56;4724285;29;20055;-89
2021/12/10 02:24:15;;;;;;;0.98;0.63;;;;;;;-145.06;0.00;60892.56;4704178;29;20124;-89
2021/12/10 02:27:00;;;;;;;0.90;0.60;;;;;;;-145.06;0.00;60892.56;4715975;29;20029;-88
2021/12/10 02:29:41;;;;;;;0.77;0.55;;;;;;;-145.06;0.00;60892.56;4714895;29;20056;-88
2021/12/10 02:32:22;;;;;;;1.00;0.50;;;;;;;-145.06;0.00;60892.56;4715454;29;20028;-88
2021/12/10 02:35:01;;;;;;;1.35;0.70;;;;;;;-145.06;0.00;60892.56;4720237;29;20435;-88
2021/12/10 02:37:42;;;;;;;0.93;0.60;;;;;;;-145.06;0.00;60892.56;4734704;29;20481;-88
2021/12/10 02:40:22;;;;;;;1.45;0.82;;;;;;;-145.06;0.00;60892.56;4723989;29;20072;-88
2021/12/10 02:43:07;;;;;;;2.00;0.63;;;;;;;-145.06;0.00;60892.56;4728433;29;20498;-88
2021/12/10 02:45:49;;;;;;;2.65;0.80;;;;;;;-145.06;0.00;60892.56;4703288;29;20635;-87
2021/12/10 02:48:29;;;;;;;2.10;0.90;;;;;;;-145.06;0.00;60892.56;4716230;29;20047;-89
2021/12/10 02:51:09;;;;;;;3.45;1.00;;;;;;;-145.06;0.00;60892.56;4737150;29;20024;-88
2021/12/10 02:53:48;;;;;;;3.22;0.90;;;;;;;-145.06;0.00;60892.56;4729132;29;20027;-88
2021/12/10 02:56:27;;;;;;;2.63;0.93;;;;;;;-145.06;0.00;60892.56;4722347;29;20036;-88
2021/12/10 02:59:07;;;;;;;1.93;0.70;;;;;;;-145.06;0.00;60892.56;4725110;29;20040;-88
2021/12/10 03:01:50;;;;;;;0.50;0.50;;;;;;;-145.06;0.00;60892.56;4722143;29;20036;-88
2021/12/10 03:04:31;;;;;;;1.10;0.75;;;;;;;-145.06;0.00;60892.56;4729368;29;20036;-88
2021/12/10 03:07:14;;;;;;;1.50;0.70;;;;;;;-145.06;0.00;60892.56;4726172;29;20124;-86
2021/12/10 03:09:53;;;;;;;3.10;0.73;;;;;;;-145.06;0.00;60892.56;4719136;29;20032;-87
2021/12/10 03:12:32;;;;;;;;;;;;;;;-145.06;0.00;60892.56;4741091;29;20028;-88
2021/12/10 03:15:13;;;;;;;0.95;0.65;;;;;;;-145.06;0.00;60892.56;4717589;29;19915;-88
2021/12/10 03:17:53;;;;;;;2.25;0.57;;;;;;;-145.06;0.00;60892.56;4718442;29;20060;-88
2021/12/10 03:20:32;;;;;;;;;;;;;;;-145.06;0.00;60892.56;4731776;29;20060;-89
2021/12/10 03:23:11;;;;;;;0.85;0.55;;;;;;;-145.06;0.00;60892.56;4725500;29;20054;-88
2021/12/10 03:25:50;;;;;;;0.95;0.60;;;;;;;-145.06;0.00;60892.56;4723888;29;20029;-88
2021/12/10 03:28:29;;;;;;;2.88;0.60;;;;;;;-145.06;0.00;60892.56;4714876;29;20036;-89
2021/12/10 03:31:10;;;;;;;4.38;1.13;;;;;;;-145.06;0.00;60892.56;4717719;29;20075;-88
2021/12/10 03:33:51;;;;;;;1.17;0.60;;;;;;;-145.06;0.00;60892.56;4741575;29;20044;-88
2021/12/10 03:36:31;;;;;;;0.70;0.60;;;;;;;-145.06;0.00;60892.56;4732392;29;20032;-88
2021/12/10 03:39:13;;;;;;;1.48;0.63;;;;;;;-145.06;0.00;60892.56;4728440;29;20028;-87
2021/12/10 03:41:55;;;;;;;1.38;0.68;;;;;;;-145.06;0.00;60892.56;4723142;29;20107;-88
2021/12/10 03:44:37;;;;;;;1.75;0.80;;;;;;;4.86;0.00;60892.56;4721447;29;20114;-88
2021/12/10 03:47:16;;;;;;;0.90;0.50;;;;;;;-145.06;0.00;60892.56;4735327;29;20694;-88
2021/12/10 03:49:55;;;;;;;1.52;0.60;;;;;;;-145.06;0.00;60892.56;4718283;29;20024;-88
2021/12/10 03:52:35;;;;;;;1.97;0.80;;;;;;;-145.06;0.00;60892.56;4721878;29;20036;-88
2021/12/10 03:55:14;;;;;;;0.80;0.52;;;;;;;5.49;0.00;60892.56;4733807;29;20273;-88
2021/12/10 03:57:55;;;;;;;1.35;0.60;;;;;;;4.96;0.00;60892.56;4747228;29;20084;-88
2021/12/10 04:00:43;;;;;;;2.65;0.80;;;;;;;-145.06;0.00;60892.56;4728234;29;20040;-88
2021/12/10 04:03:25;;;;;;;2.75;0.80;;;;;;;-145.06;0.00;60892.56;4737398;29;20024;-88
2021/12/10 04:06:04;;;;;;;2.20;1.10;;;;;;;-145.06;0.00;60892.56;4723288;29;20040;-88
2021/12/10 04:08:44;;;;;;;3.63;1.05;;;;;;;-145.06;0.00;60892.56;4716314;29;20494;-88
2021/12/10 04:11:24;;;;;;;3.50;0.80;;;;;;;10.68;0.00;60892.56;4721193;29;20032;-88
2021/12/10 04:14:03;;;;;;;;;;;;;;;-145.06;0.00;60892.56;4721957;29;20040;-87
2021/12/10 04:16:42;;;;;;;1.53;0.80;;;;;;;5.16;0.00;60892.56;4734243;29;19915;-88
2021/12/10 04:19:23;;;;;;;2.30;0.70;;;;;;;-145.06;0.00;60892.56;4728618;29;20127;-88
2021/12/10 04:22:05;;;;;;;1.05;0.52;;;;;;;-145.06;0.00;60892.56;4718666;29;20269;-88
2021/12/10 04:24:44;;;;;;;0.88;0.55;;;;;;;-145.06;0.00;60892.56;4733121;29;20032;-88
2021/12/10 04:27:24;;;;;;;0.75;0.60;;;;;;;5.49;0.00;60892.56;4713480;29;20076;-88
2021/12/10 04:30:05;;;;;;;2.63;0.70;;;;;;;5.49;0.00;60892.56;4712854;29;20380;-88
2021/12/10 04:32:46;;;;;;;1.30;0.65;;;;;;;10.68;0.00;60892.56;4706549;29;20056;-88
2021/12/10 04:35:28;;;;;;;0.85;0.50;;;;;;;-145.06;0.00;60892.56;4716962;29;20032;-88
2021/12/10 04:38:07;;;;;;;0.70;0.50;;;;;;;5.49;0.00;60892.56;4717847;29;20044;-88
2021/12/10 04:40:48;;;;;;;1.63;0.70;;;;;;;-145.06;0.00;60892.56;4721960;29;20032;-89
2021/12/10 04:43:28;;;;;;;0.70;0.50;;;;;;;-145.06;0.00;60892.56;4729447;29;20033;-89
2021/12/10 04:46:08;;;;;;;0.73;0.50;;;;;;;-145.06;0.00;60892.56;4714118;29;20036;-89
2021/12/10 04:48:52;;;;;;;0.75;0.50;;;;;;;10.68;0.00;60892.56;4715543;29;20040;-89
2021/12/10 04:51:42;;;;;;;1.70;0.60;;;;;;;-145.06;0.00;60892.56;4736811;29;20036;-89
2021/12/10 04:54:24;;;;;;;1.35;0.80;;;;;;;-145.06;0.00;60892.56;4715019;29;20028;-88
2021/12/10 04:57:04;;;;;;;2.08;0.70;;;;;;;-145.06;0.00;60892.56;4713397;29;20115;-89
2021/12/10 04:59:44;;;;;;;1.70;0.82;;;;;;;-145.06;0.00;60892.56;4717515;29;20051;-88
2021/12/10 05:02:24;;;;;;;2.17;0.85;;;;;;;-145.06;0.00;60892.56;4714529;29;20029;-88
2021/12/10 05:05:07;;;;;;;1.55;0.70;;;;;;;-145.06;0.00;60892.56;4722452;29;20045;-89
2021/12/10 05:07:47;;;;;;;1.23;0.70;;;;;;;-145.06;0.00;60892.56;4710439;29;20041;-88
2021/12/10 05:10:26;;;;;;;0.80;0.40;;;;;;;5.49;0.00;60892.56;4731039;29;20036;-88
2021/12/10 05:13:05;;;;;;;1.45;0.60;;;;;;;-145.06;0.00;60892.56;4702906;29;20040;-89
2021/12/10 05:15:44;;;;;;;1.20;0.63;;;;;;;-145.06;0.00;60892.56;4719539;29;20033;-89
2021/12/10 05:18:30;;;;;;;1.05;0.63;;;;;;;-145.06;0.00;60892.56;4720648;29;20067;-88
2021/12/10 05:21:13;;;;;;;2.35;0.80;;;;;;;187.52;0.00;60892.56;4743696;29;20032;-88
2021/12/10 05:23:53;;;;;;;3.45;0.95;;;;;;;-145.06;0.00;60892.56;4739446;29;20036;-88
2021/12/10 05:26:33;;;;;;;1.30;0.75;;;;;;;-145.06;0.00;60892.56;4720670;29;20024;-88
2021/12/10 05:29:12;;;;;;;;;;;;;;;-145.06;0.00;60892.56;4718866;29;20024;-88
2021/12/10 05:31:52;;;;;;;1.35;0.82;;;;;;;-145.06;0.00;60892.56;4721716;29;20384;-88
2021/12/10 05:34:31;;;;;;;;;;;;;;;-145.06;0.00;60892.56;4721956;29;20043;-88
2021/12/10 05:37:13;;;;;;;2.13;0.77;;;;;;;-145.06;0.00;60892.56;4719998;29;20476;-88
2021/12/10 05:39:52;;;;;;;2.35;0.80;;;;;;;-145.06;0.00;60892.56;4723398;29;20037;-88
2021/12/10 05:42:31;;;;;;;2.25;0.95;;;;;;;-145.06;0.00;60892.56;4734051;29;20032;-89
2021/12/10 05:45:14;;;;;;;2.10;0.82;;;;;;;-145.06;0.00;60892.56;4728075;29;20041;-89
2021/12/10 05:47:53;;;;;;;1.38;0.80;;;;;;;-145.06;0.00;60892.56;4718944;29;20037;-88
2021/12/10 05:50:33;;;;;;;3.57;1.13;;;;;;;-145.06;0.00;60892.56;4713576;29;20521;-88
2021/12/10 05:53:13;;;;;;;1.85;0.90;;;;;;;-145.06;0.00;60892.56;4720149;29;20036;-89
2021/12/10 05:55:53;;;;;;;1.50;1.00;;;;;;;-145.06;0.00;60892.56;4716234;29;20032;-87
2021/12/10 05:58:32;;;;;;;;;;;;;;;-145.06;0.00;60892.56;4719227;29;20041;-88
2021/12/10 06:01:14;;;;;;;3.35;1.02;;;;;;;-145.06;0.00;60892.56;4724851;29;19919;-88
2021/12/10 06:03:54;;;;;;;1.75;0.95;;;;;;;-145.06;0.00;60892.56;4717368;29;20036;-88
2021/12/10 06:06:33;;;;;;;2.33;0.93;;;;;;;-145.06;0.00;60892.56;4716028;29;20029;-88
2021/12/10 06:09:12;;;;;;;2.63;0.90;;;;;;;-145.06;0.00;60892.56;4729624;29;20028;-86
2021/12/10 06:11:51;;;;;;;1.27;0.80;;;;;;;-145.06;0.00;60892.56;4715843;29;20032;-89
2021/12/10 06:14:31;;;;;;;2.42;0.80;;;;;;;-145.06;0.00;60892.56;4716881;29;20040;-89
2021/12/10 06:17:10;;;;;;;;;;;;;;;-145.06;0.00;60892.56;4717374;29;20036;-90
2021/12/10 06:19:49;;;;;;;2.10;0.90;;;;;;;-145.06;0.00;60892.56;4716666;29;19915;-88
2021/12/10 06:22:28;;;;;;;1.98;0.90;;;;;;;-145.06;0.00;60892.56;4733911;29;20111;-88
2021/12/10 06:25:08;;;;;;;1.73;0.98;;;;;;;-145.06;0.00;60892.56;4716322;29;20041;-89
2021/12/10 06:27:47;;;;;;;1.20;0.80;;;;;;;-145.06;0.00;60892.56;4714019;29;20435;-89
2021/12/10 06:30:30;;;;;;;1.43;0.70;;;;;;;-145.06;0.00;60892.56;4714796;29;20028;-87
2021/12/10 06:33:13;;;;;;;1.17;0.63;;;;;;;-145.06;0.00;60892.56;4714497;29;20040;-88
2021/12/10 06:36:00;;;;;;;1.98;0.80;;;;;;;-145.06;0.00;60892.56;4729515;29;20044;-89
2021/12/10 06:38:40;;;;;;;1.80;0.90;;;;;;;-145.06;0.00;60892.56;4722510;29;20028;-88
2021/12/10 06:41:20;;;;;;;1.88;0.60;;;;;;;-145.06;0.00;60892.56;4714799;29;20606;-88
2021/12/10 06:44:04;;;;;;;;;;;;;;;-145.06;0.00;60892.56;4713648;29;20037;-87
2021/12/10 06:46:44;;;;;;;0.90;0.63;;;;;;;-145.06;0.00;60892.56;4708318;29;19955;-87
2021/12/10 06:49:24;;;;;;;1.77;0.70;;;;;;;-145.06;0.00;60892.56;4709065;29;20033;-88
2021/12/10 06:52:04;;;;;;;4.18;0.88;;;;;;;-145.06;0.00;60892.56;4707898;29;20028;-89
2021/12/10 06:54:45;;;;;;;1.83;0.70;;;;;;;-145.06;0.00;60892.56;4723002;29;20108;-89
2021/12/10 06:57:25;;;;;;;1.38;0.75;;;;;;;-145.06;0.00;60892.56;4710672;29;20040;-88
2021/12/10 07:00:12;;;;;;;0.88;0.70;;;;;;;-145.06;0.00;60892.56;4709746;29;20040;-88
2021/12/10 07:02:51;;;;;;;1.75;0.90;;;;;;;5.00;0.00;60892.56;4709330;29;20040;-88
2021/12/10 07:05:30;;;;;;;1.45;0.95;;;;;;;-145.06;0.00;60892.56;4716919;29;20113;-88
2021/12/10 07:08:11;;;;;;;1.80;1.10;;;;;;;-145.06;0.00;60892.56;4727352;29;20048;-88
2021/12/10 07:10:50;;;;;;;;;;;;;;;-145.06;0.00;60892.56;4734679;29;20028;-88
2021/12/10 07:13:36;;;;;;;1.73;1.17;;;;;;;-145.06;0.00;60892.56;4711613;29;19923;-88
2021/12/10 07:16:17;;;;;;;1.63;1.00;;;;;;;-145.06;0.00;60892.56;4707866;29;20148;-88
2021/12/10 07:18:58;;;;;;;0.95;0.88;;;;;;;-145.06;0.00;60892.56;4722554;29;20396;-88
2021/12/10 07:21:37;;;;;;;1.95;1.00;;;;;;;-145.06;0.00;60892.56;4712782;29;20032;-88
2021/12/10 07:24:19;;;;;;;1.90;1.00;;;;;;;-145.06;0.00;60892.56;4724099;29;20037;-88
2021/12/10 07:26:59;;;;;;;1.48;0.90;;;;;;;-145.06;0.00;60892.56;4711972;29;20040;-88
2021/12/10 07:29:39;;;;;;;;;;;;;;;-145.06;0.00;60892.56;4706504;29;20123;-88
2021/12/10 07:32:18;;;;;;;;;;;;;;;-145.06;0.00;60892.56;4723759;29;19923;-88
2021/12/10 07:34:57;;;;;;;2.03;0.77;;;;;;;-145.06;0.00;60892.56;4724558;29;19919;-87
2021/12/10 07:37:37;;;;;;;4.85;1.00;;;;;;;-145.06;0.00;60892.56;4722968;29;20040;-87
2021/12/10 07:40:21;;;;;;;1.83;0.80;;;;;;;-145.06;0.00;60892.56;4710861;29;20044;-88
2021/12/10 07:43:00;;;;;;;1.70;0.90;;;;;;;-145.06;0.00;60892.56;4703143;29;20040;-88
2021/12/10 07:45:41;;;;;;;1.70;1.03;;;;;;;-145.06;0.00;60892.56;4707213;29;20040;-87
2021/12/10 07:48:23;;;;;;;3.20;1.10;;;;;;;-145.06;0.00;60892.56;4705749;29;20044;-89
2021/12/10 07:51:08;;;;;;;3.28;1.10;;;;;;;-145.06;0.00;60892.56;4709058;29;20040;-89
2021/12/10 07:53:48;;;;;;;1.20;0.80;;;;;;;-145.06;0.00;60892.56;4706187;29;20060;-88
2021/12/10 07:56:29;;;;;;;1.80;1.10;;;;;;;-145.06;0.00;60892.56;4707158;29;20036;-88
2021/12/10 07:59:08;;;;;;;1.08;0.70;;;;;;;-145.06;0.00;60892.56;4706859;29;20048;-89
2021/12/10 08:01:48;;;;;;;1.80;0.73;;;;;;;-145.06;0.00;60892.56;4707681;29;20032;-88
2021/12/10 08:04:26;;;;;;;1.85;1.10;;;;;;;-145.06;0.00;60892.56;4706529;29;20037;-88
2021/12/10 08:07:05;;;;;;;1.73;1.17;;;;;;;-145.06;0.00;60892.56;4707796;29;20040;-88
2021/12/10 08:09:46;;;;;;;1.98;0.90;;;;;;;-145.06;0.00;60892.56;4721520;29;20099;-88
2021/12/10 08:12:25;;;;;;;3.88;1.42;;;;;;;-145.06;0.00;60892.56;4720887;29;20068;-88
2021/12/10 08:15:06;;;;;;;2.65;1.58;;;;;;;-145.06;0.00;60892.56;4706493;29;20045;-89
2021/12/10 08:17:46;;;;;;;4.00;1.42;;;;;;;-145.06;0.00;60892.56;4721087;29;20041;-88
2021/12/10 08:20:27;;;;;;;1.95;1.08;;;;;;;-145.06;0.00;60892.56;4706467;29;20120;-88
2021/12/10 08:23:06;;;;;;;2.10;1.00;;;;;;;-145.06;0.00;60892.56;4708096;29;20048;-88
2021/12/10 08:25:47;;;;;;;1.67;1.00;;;;;;;-145.06;0.00;60892.56;4707149;29;20032;-88
2021/12/10 08:28:27;;;;;;;2.72;1.08;;;;;;;-145.06;0.00;60892.56;4702674;29;20076;-88
2021/12/10 08:31:05;;;;;;;;;;;;;;;-145.06;0.00;60892.56;4707882;29;20191;-89
2021/12/10 08:33:48;;;;;;;1.37;1.00;;;;;;;-145.06;0.00;60892.56;4708376;29;20267;-89
2021/12/10 08:36:28;;;;;;;1.40;0.77;;;;;;;-145.06;0.00;60892.56;4714020;29;20115;-89
2021/12/10 08:39:10;;;;;;;3.22;1.02;;;;;;;-145.06;0.00;60892.56;4721578;29;20037;-87
2021/12/10 08:41:49;;;;;;;3.28;1.20;;;;;;;-145.06;0.00;60892.56;4713405;29;20040;-88
2021/12/10 08:44:28;;;;;;;1.55;1.08;;;;;;;-145.06;0.00;60892.56;4727529;29;20037;-88
2021/12/10 08:47:08;;;;;;;1.40;1.05;;;;;;;-145.06;0.00;60892.56;4724101;29;20502;-88
2021/12/10 08:49:47;;;;;;;;;;;;;;;-145.06;0.00;60892.56;4712607;29;20710;-88
2021/12/10 08:52:27;;;;;;;1.52;1.08;;;;;;;-145.06;0.00;60892.56;4721407;29;20010;-88
2021/12/10 08:55:06;;;;;;;1.85;1.10;;;;;;;-145.06;0.00;60892.56;4721502;29;20127;-87
2021/12/10 08:57:47;;;;;;;2.97;1.10;;;;;;;-145.06;0.00;60892.56;4717100;29;20032;-88
2021/12/10 09:00:26;;;;;;;0.73;0.70;;;;;;;-145.06;0.00;60892.56;4729828;29;20040;-89
2021/12/10 09:03:06;;;;;;;2.40;1.02;;;;;;;-145.06;0.00;60892.56;4730392;29;20028;-88
2021/12/10 09:05:45;;;;;;;1.30;0.85;;;;;;;-145.06;0.00;60892.56;4739016;29;20040;-88
2021/12/10 09:08:25;;;;;;;2.65;1.10;;;;;;;-145.06;0.00;60892.56;4728781;29;20036;-88
2021/12/10 09:11:05;;;;;;;2.70;0.90;;;;;;;-145.06;0.00;60892.56;4720558;29;20040;-88
2021/12/10 09:13:45;;;;;;;1.85;1.00;;;;;;;-145.06;0.00;60892.56;4716018;29;20595;-89
2021/12/10 09:16:27;;;;;;;4.38;1.13;;;;;;;-145.06;0.00;60892.56;4715580;29;20395;-89
2021/12/10 09:19:11;;;;;;;1.25;0.80;;;;;;;-145.06;0.00;60892.56;4732477;29;20040;-88
2021/12/10 09:21:50;;;;;;;2.03;0.88;;;;;;;-145.06;0.00;60892.56;4737870;29;20032;-88
2021/12/10 09:24:29;;;;;;;1.20;0.90;;;;;;;-145.06;0.00;60892.56;4710858;29;20036;-88
2021/12/10 09:27:09;;;;;;;0.73;0.73;;;;;;;-145.06;0.00;60892.56;4716254;29;20075;-88
2021/12/10 09:29:52;;;;;;;0.98;0.65;;;;;;;-145.06;0.00;60892.56;4722401;29;20032;-88
2021/12/10 09:32:31;;;;;;;2.45;0.88;;;;;;;-145.06;0.00;60892.56;4742433;29;20037;-89
2021/12/10 09:35:12;;;;;;;1.35;0.70;;;;;;;-145.06;0.00;60892.56;4721877;29;20024;-88
2021/12/10 09:37:51;;;;;;;1.55;0.80;;;;;;;-145.06;0.00;60892.56;4716749;29;20032;-87
2021/12/10 09:40:34;;;;;;;1.95;1.02;;;;;;;-145.06;0.00;60892.56;4721662;29;20032;-89
2021/12/10 09:43:14;;;;;;;1.27;0.73;;;;;;;-145.06;0.00;60892.56;4715063;29;20060;-87
2021/12/10 09:45:55;;;;;;;3.58;1.13;;;;;;;-145.06;0.00;60892.56;4700784;29;20033;-88
2021/12/10 09:48:34;;;;;;;2.75;0.95;;;;;;;-145.06;0.00;60892.56;4716784;29;20374;-88
2021/12/10 09:51:32;;;;;;;2.38;0.90;;;;;;;-145.06;0.00;60892.56;4734216;29;20037;-89
2021/12/10 09:54:16;;;;;;;1.63;1.00;;;;;;;-145.06;0.00;60892.56;4697157;29;20048;-88
2021/12/10 09:57:04;;;;;;;2.40;1.00;;;;;;;-145.06;0.00;60892.56;4713138;29;20036;-87
2021/12/10 09:59:45;;;;;;;1.42;0.90;;;;;;;-145.06;0.00;60892.56;4728576;29;20107;-88
2021/12/10 10:02:25;;;;;;;3.03;1.55;;;;;;;-145.06;0.00;60892.56;4715382;29;20100;-87
2021/12/10 10:05:05;;;;;;;3.13;1.13;;;;;;;-145.06;0.00;60892.56;4713180;29;20439;-88
2021/12/10 10:07:51;;;;;;;3.38;1.23;;;;;;;-145.06;0.00;60892.56;4717014;29;20482;-88
2021/12/10 10:10:31;;;;;;;2.60;1.10;;;;;;;-145.06;0.00;60892.56;4708305;29;20025;-88
2021/12/10 10:13:13;;;;;;;;;;;;;;;-145.06;0.00;60892.56;4738212;29;20478;-88
2021/12/10 10:15:57;;;;;;;6.55;1.50;;;;;;;-145.06;0.00;60892.56;4723364;29;19955;-88
2021/12/10 10:18:39;;;;;;;1.77;1.05;;;;;;;-145.06;0.00;60892.56;4729951;29;20032;-88
2021/12/10 10:21:25;;;;;;;1.67;1.17;;;;;;;-145.06;0.00;60892.56;4759040;29;20020;-88
2021/12/10 10:24:05;;;;;;;2.13;0.90;;;;;;;-145.06;0.00;60892.56;4751813;29;20024;-88
2021/12/10 10:26:52;;;;;;;4.43;1.27;;;;;;;5.14;0.00;60892.56;4725953;29;20059;-88
2021/12/10 10:29:34;;;;;;;3.25;1.70;;;;;;;5.16;0.00;60892.56;4730519;29;20032;-87
2021/12/10 10:32:21;;;;;;;4.65;1.10;;;;;;;-145.06;0.00;60892.56;4723859;29;20037;-87
2021/12/10 10:35:06;;;;;;;2.45;1.10;;;;;;;-145.06;0.00;60892.56;4726748;29;20036;-87
2021/12/10 10:37:46;;;;;;;1.58;0.90;;;;;;;-145.06;0.00;60892.56;4724749;29;20092;-87
2021/12/10 10:40:29;;;;;;;2.47;1.17;;;;;;;-145.06;0.00;60892.56;4728083;29;20044;-88
2021/12/10 10:43:09;;;;;;;2.78;1.10;;;;;;;-145.06;0.00;60892.56;4709562;29;20037;-87
2021/12/10 10:45:48;;;;;;;2.97;1.17;;;;;;;-145.06;0.00;60892.56;4714411;29;20029;-88
2021/12/10 10:48:28;;;;;;;;;;;;;;;5.18;0.00;60892.56;4727988;29;20499;-88
2021/12/10 10:51:11;;;;;;;3.95;1.30;;;;;;;-145.06;0.00;60892.56;4726626;29;20413;-88
2021/12/10 10:53:53;;;;;;;4.97;1.27;;;;;;;-145.06;0.00;60892.56;4745909;29;20036;-87
2021/12/10 10:56:41;;;;;;;1.77;1.10;;;;;;;-145.06;0.00;60892.56;4735663;29;20387;-86
2021/12/10 10:59:25;;;;;;;1.73;1.00;;;;;;;-145.06;0.00;60892.56;4731474;29;20111;-87
2021/12/10 11:02:08;;;;;;;2.22;1.00;;;;;;;-145.06;0.00;60892.56;4716151;29;20032;-87
2021/12/10 11:04:50;;;;;;;1.00;0.80;;;;;;;21.08;0.00;60892.56;4716498;29;20032;-87
2021/12/10 11:07:30;;;;;;;2.15;0.90;;;;;;;5.49;0.00;60892.56;4717436;29;20025;-87
2021/12/10 11:10:09;;;;;;;2.80;1.30;;;;;;;10.68;0.00;60892.56;4737478;29;20040;-88
2021/12/10 11:12:48;;;;;;;2.85;1.33;;;;;;;5.49;0.00;60892.56;4731392;29;20391;-87
2021/12/10 11:15:27;;;;;;;2.35;1.33;;;;;;;-145.06;0.00;60892.56;4713948;29;20111;-87
2021/12/10 11:18:14;;;;;;;3.67;1.40;;;;;;;5.17;0.00;60892.56;4713097;29;20040;-88
2021/12/10 11:20:54;;;;;;;2.42;1.35;;;;;;;5.24;0.00;60892.56;4739521;29;20115;-87
2021/12/10 11:23:34;;;;;;;2.28;1.42;;;;;;;-145.06;0.00;60892.56;4735885;29;20032;-87
2021/12/10 11:26:13;;;;;;;5.82;2.67;;;;;;;-145.06;0.00;60892.56;4722986;29;20387;-88
2021/12/10 11:28:52;;;;;;;6.45;3.20;;;;;;;5.49;0.00;60892.56;4721753;29;20079;-87
2021/12/10 11:31:31;;;;;;;3.40;2.37;;;;;;;5.49;0.00;60892.56;4719554;29;20064;-87
2021/12/10 11:34:09;;;;;;;9.63;4.10;;;;;;;-145.06;0.00;60892.56;4727506;29;20265;-87
2021/12/10 11:36:49;;;;;;;7.63;4.30;;;;;;;5.49;0.00;60892.56;4703154;29;20273;-88
2021/12/10 11:40:01;;;;;;;;;;;;;;;5.22;0.00;60892.56;4721490;29;20522;-87
2021/12/10 11:42:46;;;;;;;10.43;5.45;;;;;;;-145.06;0.00;60892.56;4687023;29;20361;-87
2021/12/10 11:45:40;;;;;;;9.15;4.20;;;;;;;-145.06;0.00;60892.56;4724253;29;20031;-87
2021/12/10 11:48:25;;;;;;;10.75;5.53;;;;;;;-145.06;0.00;60892.56;4721274;29;20032;-88
2021/12/10 11:51:19;;;;;;;11.32;5.60;;;;;;;-145.06;0.00;60892.56;4736627;29;20063;-87
2021/12/10 11:54:02;;;;;;;10.07;4.88;;;;;;;5.20;0.00;60892.56;4722196;29;20060;-89
2021/12/10 11:56:45;;;;;;;10.00;4.40;;;;;;;-145.06;0.00;60892.56;4725685;29;20036;-87
2021/12/10 11:59:29;;;;;;;11.18;5.40;;;;;;;-145.06;0.00;60892.56;4738847;29;20477;-89
2021/12/10 12:02:16;;;;;;;11.82;5.60;;;;;;;10.68;0.00;60892.56;4724965;29;20426;-86
2021/12/10 12:04:59;;;;;;;9.05;4.45;;;;;;;21.08;0.00;60892.56;4731969;29;20029;-88
2021/12/10 12:07:47;;;;;;;5.72;3.60;;;;;;;5.21;0.00;60892.56;4701816;29;20033;-87
2021/12/10 12:10:38;;;;;;;5.22;2.65;;;;;;;5.49;0.00;60892.56;4726707;29;20028;-88
2021/12/10 12:13:36;;;;;;;4.95;2.20;;;;;;;5.32;0.00;60892.56;4725017;29;20029;-88
2021/12/10 12:16:16;;;;;;;2.47;1.60;;;;;;;5.19;0.00;60892.56;4715014;29;20511;-90
2021/12/10 12:19:00;;;;;;;2.33;1.70;;;;;;;5.32;0.00;60892.56;4711485;29;20041;-89
2021/12/10 12:21:53;;;;;;;2.30;1.40;;;;;;;-145.06;0.00;60892.56;4724919;29;20363;-89
2021/12/10 12:27:29;;;;;;;1.60;1.23;;;;;;;-145.06;0.00;60892.56;4730239;29;20028;-88
2021/12/10 12:30:14;;;;;;;1.47;1.10;;;;;;;-145.06;0.00;60892.56;4721885;29;20071;-88
2021/12/10 12:32:54;;;;;;;0.88;0.75;;;;;;;-145.06;0.00;60892.56;4719863;29;20375;-88
2021/12/10 12:35:33;;;;;;;1.38;1.00;;;;;;;5.20;0.00;60892.56;4715369;29;20032;-88
2021/12/10 12:38:16;;;;;;;1.47;0.77;;;;;;;5.20;0.00;60892.56;4720429;29;20502;-89
2021/12/10 12:41:13;;;;;;;0.85;0.82;;;;;;;5.22;0.00;60892.56;4715712;29;20321;-87
2021/12/10 12:44:14;;;;;;;0.90;0.80;;;;;;;-145.06;0.00;60892.56;4721841;29;20056;-87
2021/12/10 12:47:15;;;;;;;1.40;0.88;;;;;;;-145.06;0.00;60892.56;4720631;29;20024;-86
2021/12/10 12:49:59;;;;;;;1.63;0.80;;;;;;;-145.06;0.00;60892.56;4730466;29;20029;-87
2021/12/10 12:52:43;;;;;;;1.33;0.73;;;;;;;-145.06;0.00;60892.56;4725707;29;20032;-87
2021/12/10 12:55:36;;;;;;;1.98;0.80;;;;;;;5.29;0.00;60892.56;4718456;29;20036;-87
2021/12/10 12:58:23;;;;;;;1.35;0.80;;;;;;;187.52;0.00;60892.56;4720553;29;20372;-87